Time;durP1;ratioP1;P1;durP2;ratioP2;P2;SDS_P1;SDS_P2;PMS_P1;PMS_P2;Temp;Humidity;BMP_temperature;BMP_pressure;BME280_temperature;BME280_humidity;BME280_pressure;Samples;Min_cycle;Max_cycle;Signal;HPM_P1;HPM_P2
2023/04/24 00:00:18;;;;;;;0.70;0.70;;;4.40;99.90;;;;;;5017179;28;20204;-69
2023/04/24 00:02:47;;;;;;;0.70;0.70;;;4.40;99.90;;;;;;5016675;28;20342;-70
2023/04/24 00:05:17;;;;;;;0.70;0.70;;;4.30;99.90;;;;;;5017368;28;20588;-70
2023/04/24 00:07:44;;;;;;;0.80;0.80;;;4.30;99.90;;;;;;5035133;28;20218;-70
2023/04/24 00:10:11;;;;;;;0.70;0.70;;;4.30;99.90;;;;;;5034992;28;20252;-69
2023/04/24 00:12:38;;;;;;;0.80;0.80;;;4.20;99.90;;;;;;5034756;28;20622;-70
2023/04/24 00:15:05;;;;;;;0.70;0.70;;;4.20;99.90;;;;;;5034834;28;20186;-70
2023/04/24 00:17:31;;;;;;;0.70;0.70;;;4.20;99.90;;;;;;5017039;28;20194;-70
2023/04/24 00:20:00;;;;;;;0.70;0.70;;;4.20;99.90;;;;;;5034761;28;20565;-70
2023/04/24 00:22:27;;;;;;;0.68;0.68;;;4.20;99.90;;;;;;5034308;28;20561;-70
2023/04/24 00:24:54;;;;;;;0.80;0.80;;;4.20;99.90;;;;;;5016827;28;20729;-70
2023/04/24 00:27:19;;;;;;;0.70;0.70;;;4.30;99.90;;;;;;5016670;28;20568;-70
2023/04/24 00:29:45;;;;;;;0.70;0.70;;;4.30;99.90;;;;;;5034758;28;20205;-69
2023/04/24 00:32:11;;;;;;;0.70;0.70;;;4.30;99.90;;;;;;5034536;28;20190;-69
2023/04/24 00:34:37;;;;;;;0.70;0.70;;;4.20;99.90;;;;;;5016510;28;20198;-69
2023/04/24 00:37:03;;;;;;;0.70;0.70;;;4.20;99.90;;;;;;5034401;28;20221;-70
2023/04/24 00:39:29;;;;;;;0.77;0.77;;;4.20;99.90;;;;;;5033865;28;20202;-70
2023/04/24 00:41:55;;;;;;;0.75;0.75;;;4.20;99.90;;;;;;5034459;28;20217;-70
2023/04/24 00:44:21;;;;;;;0.70;0.70;;;4.20;99.90;;;;;;5034153;28;20241;-70
2023/04/24 00:46:51;;;;;;;0.70;0.70;;;4.20;99.90;;;;;;5034124;28;20190;-70
2023/04/24 00:49:18;;;;;;;0.80;0.80;;;4.20;99.90;;;;;;5016520;28;20195;-69
2023/04/24 00:51:45;;;;;;;0.70;0.70;;;4.20;99.90;;;;;;5034475;28;20281;-70
2023/04/24 00:54:11;;;;;;;0.70;0.70;;;4.20;99.90;;;;;;5007428;28;20195;-69
2023/04/24 00:56:37;;;;;;;0.70;0.70;;;4.10;99.90;;;;;;5014307;28;20199;-70
2023/04/24 00:59:04;;;;;;;0.70;0.70;;;4.10;99.90;;;;;;5014374;28;20684;-70
2023/04/24 01:01:30;;;;;;;0.70;0.70;;;4.00;99.90;;;;;;4996966;28;20230;-74
2023/04/24 01:03:58;;;;;;;0.70;0.70;;;4.10;99.90;;;;;;5012047;23;20306;-71
2023/04/24 01:06:27;;;;;;;0.70;0.70;;;4.10;99.90;;;;;;5092437;28;20646;-71
2023/04/24 01:08:54;;;;;;;0.70;0.70;;;4.10;99.90;;;;;;5093735;28;20192;-71
2023/04/24 01:11:21;;;;;;;0.80;0.80;;;4.10;99.90;;;;;;5093445;28;20224;-71
2023/04/24 01:13:51;;;;;;;0.77;0.77;;;4.10;99.90;;;;;;5075117;28;20536;-74
2023/04/24 01:16:20;;;;;;;0.75;0.75;;;4.10;99.90;;;;;;5075233;28;20196;-74
2023/04/24 01:18:48;;;;;;;0.70;0.70;;;4.00;99.90;;;;;;5074620;28;20196;-74
2023/04/24 01:21:21;;;;;;;0.80;0.80;;;4.00;99.90;;;;;;5073529;28;20659;-74
2023/04/24 01:23:50;;;;;;;0.80;0.80;;;4.00;99.90;;;;;;5074230;28;20196;-74
2023/04/24 01:26:19;;;;;;;0.70;0.70;;;4.00;99.90;;;;;;5073796;28;20200;-74
2023/04/24 01:28:47;;;;;;;0.70;0.70;;;3.90;99.90;;;;;;5074635;28;20592;-74
2023/04/24 01:31:14;;;;;;;0.80;0.80;;;3.90;99.90;;;;;;5093197;28;20196;-74
2023/04/24 01:33:42;;;;;;;0.70;0.70;;;3.90;99.90;;;;;;5093360;28;20236;-74
2023/04/24 01:36:10;;;;;;;0.70;0.70;;;3.90;99.90;;;;;;5074664;28;20204;-74
2023/04/24 01:38:36;;;;;;;0.75;0.75;;;3.90;99.90;;;;;;5074748;28;20282;-74
2023/04/24 01:41:02;;;;;;;0.70;0.70;;;3.90;99.90;;;;;;5093081;28;20281;-74
2023/04/24 01:43:31;;;;;;;0.75;0.75;;;3.90;99.90;;;;;;5092860;28;20195;-75
2023/04/24 01:45:57;;;;;;;0.70;0.70;;;3.90;99.90;;;;;;5093058;28;20227;-74
2023/04/24 01:48:23;;;;;;;0.80;0.80;;;3.90;99.90;;;;;;5092748;28;20199;-73
2023/04/24 01:50:49;;;;;;;0.70;0.70;;;3.90;99.90;;;;;;5092894;28;20624;-74
2023/04/24 01:53:18;;;;;;;0.80;0.80;;;3.90;99.90;;;;;;5074394;28;20654;-74
2023/04/24 01:55:44;;;;;;;0.70;0.70;;;3.90;99.90;;;;;;5092424;28;20253;-74
2023/04/24 01:58:10;;;;;;;0.80;0.80;;;3.90;99.90;;;;;;5092797;28;20183;-75
2023/04/24 02:00:35;;;;;;;0.73;0.73;;;3.90;99.90;;;;;;5073707;28;20204;-74
2023/04/24 02:03:01;;;;;;;0.80;0.80;;;3.90;99.90;;;;;;5092613;28;20714;-74
2023/04/24 02:05:27;;;;;;;0.80;0.80;;;3.90;99.90;;;;;;5074008;28;20323;-74
2023/04/24 02:07:53;;;;;;;0.75;0.75;;;3.90;99.90;;;;;;5074608;28;20625;-74
2023/04/24 02:10:19;;;;;;;0.80;0.80;;;3.90;99.90;;;;;;5092221;28;20265;-74
2023/04/24 02:12:44;;;;;;;0.80;0.80;;;3.90;99.90;;;;;;5092526;28;20191;-74
2023/04/24 02:15:11;;;;;;;0.70;0.70;;;3.80;99.90;;;;;;5074217;28;20571;-74
2023/04/24 02:17:37;;;;;;;0.75;0.75;;;3.80;99.90;;;;;;5092404;28;20184;-74
2023/04/24 02:20:04;;;;;;;0.65;0.65;;;3.80;99.90;;;;;;5074585;28;20200;-71
2023/04/24 02:22:30;;;;;;;0.80;0.80;;;3.80;99.90;;;;;;5074065;28;20199;-71
2023/04/24 02:24:56;;;;;;;0.70;0.70;;;3.80;99.90;;;;;;5074345;28;20211;-71
2023/04/24 02:27:21;;;;;;;0.70;0.70;;;3.80;99.90;;;;;;5092149;28;20215;-71
2023/04/24 02:29:47;;;;;;;0.70;0.70;;;3.80;99.90;;;;;;5092496;28;20192;-71
2023/04/24 02:32:15;;;;;;;0.70;0.70;;;3.80;99.90;;;;;;5092537;28;20192;-71
2023/04/24 02:34:40;;;;;;;0.77;0.77;;;3.80;99.90;;;;;;5093367;28;20192;-70
2023/04/24 02:37:06;;;;;;;0.80;0.80;;;3.80;99.90;;;;;;5058312;28;20686;-70
2023/04/24 02:39:32;;;;;;;0.70;0.70;;;3.80;99.90;;;;;;5076164;28;20196;-70
2023/04/24 02:41:58;;;;;;;0.60;0.60;;;3.90;99.90;;;;;;5058267;28;20291;-70
2023/04/24 02:44:24;;;;;;;0.70;0.70;;;3.90;99.90;;;;;;5076305;28;20609;-71
2023/04/24 02:46:49;;;;;;;0.70;0.70;;;3.90;99.90;;;;;;5076535;28;20267;-71
2023/04/24 02:49:15;;;;;;;0.60;0.60;;;3.90;99.90;;;;;;5076204;28;20192;-71
2023/04/24 02:51:41;;;;;;;0.70;0.70;;;3.90;99.90;;;;;;5077284;28;20192;-70
2023/04/24 02:54:09;;;;;;;0.70;0.70;;;3.90;99.90;;;;;;5096275;28;20192;-69
2023/04/24 02:56:35;;;;;;;0.70;0.70;;;4.00;99.90;;;;;;5095966;28;20604;-69
2023/04/24 02:59:01;;;;;;;0.70;0.70;;;3.90;99.90;;;;;;5096194;28;20249;-70
2023/04/24 03:01:27;;;;;;;0.80;0.80;;;4.00;99.90;;;;;;5086868;28;20212;-69
2023/04/24 03:03:53;;;;;;;0.60;0.60;;;4.00;99.90;;;;;;5108178;28;20227;-70
2023/04/24 03:06:21;;;;;;;0.80;0.80;;;3.90;99.90;;;;;;5099709;28;20207;-71
2023/04/24 03:08:47;;;;;;;0.80;0.80;;;3.90;99.90;;;;;;5096040;28;20258;-70
2023/04/24 03:11:13;;;;;;;0.80;0.80;;;3.90;99.90;;;;;;5077781;28;20192;-70
2023/04/24 03:13:41;;;;;;;0.77;0.77;;;3.90;99.90;;;;;;5095668;28;20215;-71
2023/04/24 03:16:07;;;;;;;0.80;0.80;;;3.90;99.90;;;;;;5095881;28;20191;-70
2023/04/24 03:18:32;;;;;;;0.70;0.70;;;3.90;99.90;;;;;;5095649;28;20184;-71
2023/04/24 03:20:59;;;;;;;0.70;0.70;;;3.80;99.90;;;;;;5095724;28;20238;-70
2023/04/24 03:23:24;;;;;;;0.75;0.75;;;3.80;99.90;;;;;;5095619;28;20189;-70
2023/04/24 03:25:51;;;;;;;0.70;0.70;;;3.80;99.90;;;;;;5095528;28;20207;-71
2023/04/24 03:28:19;;;;;;;0.70;0.70;;;3.80;99.90;;;;;;5095476;28;20226;-70
2023/04/24 03:30:48;;;;;;;0.70;0.70;;;3.80;99.90;;;;;;5095429;28;20557;-71
2023/04/24 03:33:13;;;;;;;0.70;0.70;;;3.80;99.90;;;;;;5095472;28;20188;-71
2023/04/24 03:35:39;;;;;;;0.70;0.70;;;3.80;99.90;;;;;;5084004;28;20287;-70
2023/04/24 03:38:05;;;;;;;0.70;0.70;;;3.80;99.90;;;;;;5075234;28;20224;-70
2023/04/24 03:40:33;;;;;;;0.70;0.70;;;3.80;99.90;;;;;;5074909;28;20228;-70
2023/04/24 03:42:59;;;;;;;0.75;0.75;;;3.80;99.90;;;;;;5057093;28;20634;-70
2023/04/24 03:45:24;;;;;;;0.60;0.60;;;3.80;99.90;;;;;;5073988;28;20292;-70
2023/04/24 03:47:50;;;;;;;0.80;0.80;;;3.80;99.90;;;;;;5093480;28;20567;-71
2023/04/24 03:50:16;;;;;;;0.70;0.70;;;3.80;99.90;;;;;;5095068;28;20216;-71
2023/04/24 03:52:42;;;;;;;0.75;0.75;;;3.80;99.90;;;;;;5094956;28;20239;-71
2023/04/24 03:55:08;;;;;;;0.80;0.80;;;3.90;99.90;;;;;;5095090;28;20231;-71
2023/04/24 03:57:33;;;;;;;1.38;1.27;;;3.90;99.90;;;;;;5076480;28;20196;-71
2023/04/24 03:59:59;;;;;;;0.70;0.70;;;4.00;99.90;;;;;;5095017;28;20197;-72
2023/04/24 04:02:25;;;;;;;0.65;0.65;;;4.00;99.90;;;;;;5094518;28;20287;-71
2023/04/24 04:04:51;;;;;;;0.70;0.70;;;4.00;99.90;;;;;;5094429;28;20235;-71
2023/04/24 04:07:17;;;;;;;0.60;0.60;;;4.00;99.90;;;;;;5094708;28;20192;-71
2023/04/24 04:09:42;;;;;;;0.68;0.68;;;4.10;99.90;;;;;;5094462;28;20195;-71
2023/04/24 04:12:08;;;;;;;0.70;0.70;;;4.10;99.90;;;;;;5076518;28;20196;-71
2023/04/24 04:14:34;;;;;;;0.80;0.80;;;4.10;99.90;;;;;;5094473;28;20192;-71
2023/04/24 04:17:00;;;;;;;0.80;0.80;;;4.10;99.90;;;;;;5094637;28;20195;-70
2023/04/24 04:19:26;;;;;;;0.70;0.70;;;4.10;99.90;;;;;;5094394;28;20246;-70
2023/04/24 04:21:53;;;;;;;0.80;0.80;;;4.20;99.90;;;;;;5094437;28;20195;-70
2023/04/24 04:24:26;;;;;;;0.80;0.80;;;4.10;99.90;;;;;;5094597;28;20638;-70
2023/04/24 04:26:52;;;;;;;0.80;0.80;;;4.20;99.90;;;;;;5094251;28;20184;-70
2023/04/24 04:29:22;;;;;;;0.60;0.60;;;4.10;99.90;;;;;;5076161;28;20219;-71
2023/04/24 04:31:48;;;;;;;0.93;0.93;;;4.20;99.90;;;;;;5076211;28;20196;-70
2023/04/24 04:34:14;;;;;;;0.80;0.80;;;4.10;99.90;;;;;;5094299;28;20196;-70
2023/04/24 04:36:40;;;;;;;0.70;0.70;;;4.10;99.90;;;;;;5074286;28;20200;-70
2023/04/24 04:39:06;;;;;;;0.70;0.70;;;4.10;99.90;;;;;;5055943;28;20220;-70
2023/04/24 04:41:35;;;;;;;0.80;0.80;;;4.10;99.90;;;;;;5073740;28;20188;-70
2023/04/24 04:44:04;;;;;;;0.60;0.60;;;4.10;99.90;;;;;;5073608;28;20196;-70
2023/04/24 04:46:32;;;;;;;0.70;0.70;;;4.10;99.90;;;;;;5093804;28;20196;-70
2023/04/24 04:48:59;;;;;;;0.70;0.70;;;4.10;99.90;;;;;;5093932;28;20341;-74
2023/04/24 04:51:25;;;;;;;0.90;0.90;;;4.10;99.90;;;;;;5093635;28;20184;-73
2023/04/24 04:53:50;;;;;;;0.60;0.60;;;4.10;99.90;;;;;;5093955;28;20668;-74
2023/04/24 04:56:19;;;;;;;0.70;0.70;;;4.10;99.90;;;;;;5074445;28;20681;-74
2023/04/24 04:58:45;;;;;;;0.68;0.68;;;4.10;99.90;;;;;;5093549;28;20239;-73
2023/04/24 05:01:11;;;;;;;0.70;0.70;;;4.20;99.90;;;;;;5075326;28;20224;-74
2023/04/24 05:03:36;;;;;;;0.70;0.70;;;4.10;99.90;;;;;;5092952;28;20254;-70
2023/04/24 05:06:03;;;;;;;0.70;0.70;;;4.10;99.90;;;;;;5093690;28;20775;-70
2023/04/24 05:08:28;;;;;;;0.63;0.63;;;4.10;99.90;;;;;;5093302;28;20542;-71
2023/04/24 05:10:55;;;;;;;0.70;0.70;;;4.10;99.90;;;;;;5093600;28;20191;-71
2023/04/24 05:13:21;;;;;;;0.70;0.70;;;4.10;99.90;;;;;;5093341;28;20616;-71
2023/04/24 05:15:47;;;;;;;0.75;0.75;;;4.10;99.90;;;;;;5093523;28;20271;-74
2023/04/24 05:18:12;;;;;;;0.68;0.68;;;4.10;99.90;;;;;;5093279;28;20936;-74
2023/04/24 05:20:43;;;;;;;0.68;0.68;;;4.00;99.90;;;;;;5064401;28;20597;-74
2023/04/24 05:23:12;;;;;;;0.73;0.73;;;4.10;99.90;;;;;;5073102;28;20190;-75
2023/04/24 05:25:39;;;;;;;0.80;0.80;;;4.10;99.90;;;;;;5072813;28;20321;-74
2023/04/24 05:28:05;;;;;;;0.80;0.80;;;4.10;99.90;;;;;;5072931;28;20185;-74
2023/04/24 05:30:34;;;;;;;0.70;0.70;;;4.10;99.90;;;;;;5072785;28;20245;-74
2023/04/24 05:33:00;;;;;;;0.68;0.68;;;4.20;99.90;;;;;;5054812;28;20216;-74
2023/04/24 05:35:25;;;;;;;0.70;0.70;;;4.10;99.90;;;;;;5072450;28;20189;-74
2023/04/24 05:37:54;;;;;;;0.80;0.80;;;4.10;99.90;;;;;;5073044;28;20227;-75
2023/04/24 05:40:20;;;;;;;0.70;0.70;;;4.20;99.90;;;;;;5072516;28;20200;-74
2023/04/24 05:42:45;;;;;;;0.70;0.70;;;4.10;99.90;;;;;;5093090;28;20203;-74
2023/04/24 05:45:16;;;;;;;0.60;0.60;;;4.20;99.90;;;;;;5092907;28;20341;-75
2023/04/24 05:47:43;;;;;;;0.75;0.75;;;4.20;99.90;;;;;;5074540;28;20192;-74
2023/04/24 05:50:11;;;;;;;0.70;0.70;;;4.20;99.90;;;;;;5074609;28;20196;-74
2023/04/24 05:52:37;;;;;;;0.70;0.70;;;4.20;99.90;;;;;;5092617;28;20654;-74
2023/04/24 05:55:03;;;;;;;0.70;0.70;;;4.20;99.90;;;;;;5092818;28;20204;-74
2023/04/24 05:57:28;;;;;;;0.63;0.63;;;4.30;99.90;;;;;;5092302;28;20207;-69
2023/04/24 05:59:55;;;;;;;0.60;0.60;;;4.30;99.90;;;;;;5092742;28;20249;-70
2023/04/24 06:02:20;;;;;;;0.70;0.70;;;4.30;99.90;;;;;;5092473;28;20262;-70
2023/04/24 06:04:46;;;;;;;0.70;0.70;;;4.20;99.90;;;;;;5092196;28;20234;-70
2023/04/24 06:07:12;;;;;;;0.60;0.60;;;4.20;99.90;;;;;;5092243;28;20188;-70
2023/04/24 06:09:38;;;;;;;0.75;0.75;;;4.30;99.90;;;;;;5092697;28;20735;-69
2023/04/24 06:12:04;;;;;;;0.80;0.80;;;4.30;99.90;;;;;;5092573;28;20275;-69
2023/04/24 06:14:29;;;;;;;0.98;0.98;;;4.30;99.90;;;;;;5074207;28;20196;-69
2023/04/24 06:16:55;;;;;;;2.85;1.77;;;4.30;99.90;;;;;;5073921;28;20634;-69
2023/04/24 06:19:21;;;;;;;0.70;0.70;;;4.40;99.90;;;;;;5092234;28;20190;-70
2023/04/24 06:21:46;;;;;;;2.25;1.42;;;4.40;99.90;;;;;;5092380;28;20245;-70
2023/04/24 06:24:17;;;;;;;2.83;2.63;;;4.50;99.90;;;;;;5074247;28;20199;-69
2023/04/24 06:26:43;;;;;;;1.30;1.23;;;4.50;99.90;;;;;;5092142;28;20195;-70
2023/04/24 06:29:09;;;;;;;1.30;1.17;;;4.60;99.90;;;;;;5092384;28;20188;-70
2023/04/24 06:31:36;;;;;;;1.58;1.10;;;4.70;99.90;;;;;;5073959;28;20654;-70
2023/04/24 06:34:03;;;;;;;0.80;0.80;;;4.80;99.90;;;;;;5092414;28;20232;-70
2023/04/24 06:36:30;;;;;;;0.70;0.70;;;4.90;99.90;;;;;;5091325;28;20275;-74
2023/04/24 06:38:57;;;;;;;0.73;0.73;;;5.00;99.90;;;;;;5092398;28;20357;-74
2023/04/24 06:41:26;;;;;;;1.20;1.15;;;5.10;99.90;;;;;;5091833;28;20218;-74
2023/04/24 06:43:52;;;;;;;0.95;0.95;;;5.20;99.90;;;;;;5092275;28;20279;-75
2023/04/24 06:46:17;;;;;;;0.90;0.90;;;5.30;99.90;;;;;;5092237;28;20714;-74
2023/04/24 06:48:43;;;;;;;0.88;0.88;;;5.30;99.90;;;;;;5092133;28;20216;-74
2023/04/24 06:51:09;;;;;;;0.90;0.90;;;5.40;99.90;;;;;;5092115;28;20287;-74
2023/04/24 06:53:35;;;;;;;1.13;1.13;;;5.30;99.90;;;;;;5073811;28;20200;-74
2023/04/24 06:56:04;;;;;;;0.70;0.70;;;5.40;99.90;;;;;;5092127;28;20200;-74
2023/04/24 06:58:30;;;;;;;0.80;0.80;;;5.50;99.90;;;;;;5073616;28;20202;-71
2023/04/24 07:00:56;;;;;;;0.70;0.70;;;5.60;99.90;;;;;;5092157;28;20609;-74
2023/04/24 07:03:22;;;;;;;0.70;0.70;;;5.70;99.90;;;;;;5091457;28;20196;-74
2023/04/24 07:05:49;;;;;;;0.70;0.70;;;5.80;99.90;;;;;;5091994;28;20210;-74
2023/04/24 07:08:17;;;;;;;0.90;0.90;;;5.80;99.90;;;;;;5091985;28;20192;-74
2023/04/24 07:10:43;;;;;;;1.35;1.25;;;5.80;99.90;;;;;;5091822;28;20195;-71
2023/04/24 07:13:09;;;;;;;0.65;0.65;;;5.70;99.90;;;;;;5091732;28;20192;-71
2023/04/24 07:15:35;;;;;;;0.70;0.70;;;5.70;99.90;;;;;;5091860;28;20192;-71
2023/04/24 07:18:01;;;;;;;0.70;0.70;;;5.60;99.90;;;;;;5091935;28;20551;-71
2023/04/24 07:20:29;;;;;;;0.70;0.70;;;5.60;99.90;;;;;;5093724;28;20267;-72
2023/04/24 07:22:55;;;;;;;0.70;0.70;;;5.60;99.90;;;;;;5095701;28;20250;-71
2023/04/24 07:25:20;;;;;;;0.60;0.60;;;5.60;99.90;;;;;;5077170;28;20208;-71
2023/04/24 07:27:48;;;;;;;0.70;0.70;;;5.70;99.90;;;;;;5095445;28;20192;-71
2023/04/24 07:30:17;;;;;;;0.50;0.50;;;5.70;99.90;;;;;;5095507;28;20200;-71
2023/04/24 07:32:43;;;;;;;0.60;0.60;;;5.70;99.90;;;;;;5076820;28;20517;-71
2023/04/24 07:35:09;;;;;;;0.77;0.77;;;5.70;99.90;;;;;;5095233;28;20192;-74
2023/04/24 07:37:35;;;;;;;0.60;0.60;;;5.70;99.90;;;;;;5095156;28;20248;-74
2023/04/24 07:40:01;;;;;;;0.70;0.70;;;5.80;99.90;;;;;;5077227;28;20287;-70
2023/04/24 07:42:30;;;;;;;0.70;0.70;;;5.80;99.90;;;;;;5095026;28;20196;-70
2023/04/24 07:44:55;;;;;;;0.70;0.70;;;6.00;99.90;;;;;;5077051;28;20690;-70
2023/04/24 07:47:21;;;;;;;0.70;0.70;;;6.10;99.90;;;;;;5094901;28;20211;-70
2023/04/24 07:49:50;;;;;;;1.20;1.10;;;6.20;99.90;;;;;;5095198;28;20283;-70
2023/04/24 07:52:16;;;;;;;0.70;0.70;;;6.20;99.90;;;;;;5094864;28;20275;-70
2023/04/24 07:54:42;;;;;;;0.80;0.80;;;6.10;99.90;;;;;;5094955;28;20280;-70
2023/04/24 07:57:08;;;;;;;0.70;0.70;;;6.00;99.90;;;;;;5076728;28;20196;-75
2023/04/24 07:59:34;;;;;;;0.70;0.70;;;6.10;99.90;;;;;;5094792;28;20207;-70
2023/04/24 08:02:01;;;;;;;0.70;0.70;;;6.20;99.90;;;;;;5094885;28;20184;-70
2023/04/24 08:04:27;;;;;;;0.63;0.63;;;6.10;99.90;;;;;;5075918;28;20227;-70
2023/04/24 08:06:55;;;;;;;0.70;0.70;;;6.10;99.90;;;;;;5094777;28;20198;-70
2023/04/24 08:09:21;;;;;;;0.80;0.80;;;6.00;99.90;;;;;;5084318;28;20193;-71
2023/04/24 08:11:47;;;;;;;1.23;1.13;;;6.10;99.90;;;;;;5074532;28;20185;-70
2023/04/24 08:14:13;;;;;;;0.70;0.70;;;6.20;99.90;;;;;;5074457;28;20728;-70
2023/04/24 08:16:39;;;;;;;0.80;0.80;;;6.20;99.90;;;;;;5074207;28;20734;-70
2023/04/24 08:19:04;;;;;;;0.70;0.70;;;6.20;99.90;;;;;;5074207;28;20667;-70
2023/04/24 08:21:30;;;;;;;0.70;0.70;;;6.30;99.90;;;;;;5056087;28;20697;-70
2023/04/24 08:23:56;;;;;;;0.60;0.60;;;6.30;99.90;;;;;;5074258;28;20192;-70
2023/04/24 08:26:22;;;;;;;0.70;0.70;;;6.30;99.90;;;;;;5073848;28;20189;-71
2023/04/24 08:28:48;;;;;;;0.70;0.70;;;6.20;99.90;;;;;;5090145;28;20583;-70
2023/04/24 08:31:13;;;;;;;0.70;0.70;;;6.20;99.90;;;;;;5094190;28;20188;-70
2023/04/24 08:33:40;;;;;;;0.60;0.60;;;6.10;99.90;;;;;;5094182;28;20200;-70
2023/04/24 08:36:07;;;;;;;0.60;0.60;;;6.00;99.90;;;;;;5093970;28;20666;-70
2023/04/24 08:38:33;;;;;;;0.80;0.80;;;6.10;99.90;;;;;;5075808;28;20264;-71
2023/04/24 08:41:01;;;;;;;0.80;0.80;;;6.20;99.90;;;;;;5094127;28;20535;-70
2023/04/24 08:43:28;;;;;;;0.70;0.70;;;6.30;99.90;;;;;;5093783;28;20204;-71
2023/04/24 08:45:56;;;;;;;0.70;0.70;;;6.20;99.90;;;;;;5075785;28;20208;-70
2023/04/24 08:48:23;;;;;;;0.70;0.70;;;6.20;99.90;;;;;;5093618;28;20200;-71
2023/04/24 08:50:50;;;;;;;0.70;0.70;;;6.20;99.90;;;;;;5093908;28;20193;-70
2023/04/24 08:53:19;;;;;;;0.70;0.70;;;6.20;99.90;;;;;;5075792;28;20708;-71
2023/04/24 08:55:48;;;;;;;0.70;0.70;;;6.10;99.90;;;;;;5094151;28;20223;-71
2023/04/24 08:58:14;;;;;;;0.65;0.65;;;6.20;99.90;;;;;;5093795;28;20196;-71
2023/04/24 09:00:46;;;;;;;0.80;0.80;;;6.20;99.90;;;;;;5093607;28;20241;-71
2023/04/24 09:03:16;;;;;;;0.70;0.70;;;6.40;99.90;;;;;;5093485;28;20184;-71
2023/04/24 09:05:45;;;;;;;0.70;0.70;;;6.40;99.90;;;;;;5063826;28;20240;-70
2023/04/24 09:08:15;;;;;;;0.70;0.70;;;6.40;99.90;;;;;;5073344;28;20600;-70
2023/04/24 09:10:41;;;;;;;0.70;0.70;;;6.50;99.90;;;;;;5073230;28;20677;-71
2023/04/24 09:13:11;;;;;;;0.93;0.93;;;6.50;99.90;;;;;;5073256;28;20220;-70
2023/04/24 09:15:37;;;;;;;0.70;0.70;;;6.50;99.90;;;;;;5073123;28;20193;-70
2023/04/24 09:18:08;;;;;;;2.33;2.10;;;6.60;99.90;;;;;;5073169;28;20215;-70
2023/04/24 09:20:35;;;;;;;0.70;0.70;;;6.60;99.90;;;;;;5073085;28;20560;-70
2023/04/24 09:23:01;;;;;;;0.70;0.70;;;6.50;99.90;;;;;;5055201;28;20204;-70
2023/04/24 09:25:35;;;;;;;0.70;0.70;;;6.50;99.90;;;;;;5092300;28;20204;-70
2023/04/24 09:28:06;;;;;;;0.70;0.70;;;6.60;99.90;;;;;;5093368;28;20192;-71
2023/04/24 09:30:32;;;;;;;0.70;0.70;;;6.60;99.90;;;;;;5074925;28;20200;-71
2023/04/24 09:33:14;;;;;;;0.70;0.70;;;6.60;99.90;;;;;;5093071;28;20201;-71
2023/04/24 09:35:51;;;;;;;0.60;0.60;;;6.70;99.90;;;;;;5074562;28;20674;-70
2023/04/24 09:38:17;;;;;;;0.70;0.70;;;6.70;99.90;;;;;;5093051;28;20267;-70
2023/04/24 09:40:43;;;;;;;0.70;0.70;;;6.70;99.90;;;;;;5093179;28;20594;-75
2023/04/24 09:43:12;;;;;;;1.52;1.42;;;6.60;99.90;;;;;;5092165;28;20196;-75
2023/04/24 09:45:39;;;;;;;0.80;0.80;;;6.70;99.90;;;;;;5092772;28;20232;-74
2023/04/24 09:48:09;;;;;;;0.60;0.60;;;6.80;99.90;;;;;;5093014;28;20192;-74
2023/04/24 09:50:52;;;;;;;0.60;0.60;;;6.80;99.90;;;;;;5096586;28;20188;-71
2023/04/24 09:53:24;;;;;;;0.60;0.60;;;6.90;99.90;;;;;;5075890;28;20682;-71
2023/04/24 09:55:50;;;;;;;0.70;0.70;;;7.00;99.90;;;;;;5092849;28;20674;-71
2023/04/24 09:58:16;;;;;;;0.70;0.70;;;6.90;99.90;;;;;;5092647;28;20203;-71
2023/04/24 10:00:41;;;;;;;0.70;0.70;;;7.00;99.90;;;;;;5073676;28;20200;-71
2023/04/24 10:03:08;;;;;;;0.60;0.60;;;7.00;99.90;;;;;;5054350;28;20196;-71
2023/04/24 10:05:35;;;;;;;0.63;0.63;;;6.90;99.90;;;;;;5071891;28;20643;-71
2023/04/24 10:08:05;;;;;;;0.60;0.60;;;6.80;99.90;;;;;;5054520;28;20192;-71
2023/04/24 10:10:33;;;;;;;0.80;0.80;;;6.80;99.90;;;;;;5072139;28;20250;-71
2023/04/24 10:13:00;;;;;;;0.70;0.70;;;6.90;99.90;;;;;;5072399;28;20204;-72
2023/04/24 10:15:27;;;;;;;0.60;0.60;;;7.00;99.90;;;;;;5072190;28;20193;-71
2023/04/24 10:17:55;;;;;;;0.70;0.70;;;7.00;99.90;;;;;;5054441;28;20204;-71
2023/04/24 10:20:26;;;;;;;0.70;0.70;;;7.00;99.90;;;;;;5080104;28;20267;-71
2023/04/24 10:22:53;;;;;;;0.70;0.70;;;7.10;99.90;;;;;;5074262;28;20203;-71
2023/04/24 10:25:30;;;;;;;0.70;0.70;;;7.10;99.90;;;;;;5092278;28;20203;-71
2023/04/24 10:27:59;;;;;;;0.70;0.70;;;7.00;99.90;;;;;;5092302;28;20527;-71
2023/04/24 10:30:27;;;;;;;0.63;0.63;;;7.00;99.90;;;;;;5074123;28;20678;-71
2023/04/24 10:32:53;;;;;;;0.60;0.60;;;6.90;99.90;;;;;;5092424;28;20187;-71
2023/04/24 10:35:22;;;;;;;0.60;0.60;;;7.00;99.90;;;;;;5091686;28;20204;-71
2023/04/24 10:38:09;;;;;;;0.73;0.73;;;6.80;99.90;;;;;;5074220;28;20235;-71
2023/04/24 10:40:36;;;;;;;0.70;0.70;;;6.80;99.90;;;;;;5073740;28;20662;-71
2023/04/24 10:43:08;;;;;;;0.60;0.60;;;6.80;99.90;;;;;;5074257;28;20204;-71
2023/04/24 10:45:34;;;;;;;0.65;0.65;;;6.90;99.90;;;;;;5091917;28;20336;-71
2023/04/24 10:48:06;;;;;;;0.70;0.70;;;6.90;99.90;;;;;;5092262;28;20695;-71
2023/04/24 10:50:53;;;;;;;0.70;0.70;;;6.90;99.90;;;;;;5092043;28;20184;-71
2023/04/24 10:53:30;;;;;;;0.70;0.70;;;6.90;99.90;;;;;;5074275;28;20252;-73
2023/04/24 10:56:13;;;;;;;0.70;0.70;;;6.90;99.90;;;;;;5096171;28;20192;-74
2023/04/24 10:58:59;;;;;;;0.65;0.65;;;6.80;99.90;;;;;;5066953;28;20211;-73
2023/04/24 11:01:32;;;;;;;0.70;0.70;;;6.90;99.90;;;;;;5095950;28;20701;-73
2023/04/24 11:04:00;;;;;;;0.70;0.70;;;6.80;99.90;;;;;;5096122;28;20649;-73
2023/04/24 11:06:31;;;;;;;0.70;0.70;;;6.80;99.90;;;;;;5077417;28;20621;-73
2023/04/24 11:09:12;;;;;;;0.60;0.60;;;6.70;99.90;;;;;;5096047;28;20233;-73
2023/04/24 11:11:44;;;;;;;0.60;0.60;;;6.60;99.90;;;;;;5095589;28;20216;-72
2023/04/24 11:14:10;;;;;;;0.80;0.80;;;6.60;99.90;;;;;;5095867;28;20679;-73
2023/04/24 11:16:45;;;;;;;0.52;0.52;;;6.60;99.90;;;;;;5095127;28;20287;-68
2023/04/24 11:19:16;;;;;;;0.80;0.80;;;6.60;99.90;;;;;;5095748;28;20209;-68
2023/04/24 11:22:02;;;;;;;0.70;0.70;;;6.80;99.90;;;;;;5094776;28;20192;-68
2023/04/24 11:24:31;;;;;;;0.60;0.60;;;6.80;99.90;;;;;;5077054;28;20227;-68
2023/04/24 11:27:06;;;;;;;0.68;0.68;;;6.70;99.90;;;;;;5077295;28;20261;-68
2023/04/24 11:29:56;;;;;;;1.75;1.42;;;6.80;99.90;;;;;;5077196;28;20199;-68
2023/04/24 11:32:34;;;;;;;0.60;0.60;;;6.90;99.90;;;;;;5076873;28;20653;-68
2023/04/24 11:35:13;;;;;;;0.65;0.65;;;6.90;99.90;;;;;;5095224;28;20673;-68
2023/04/24 11:37:41;;;;;;;1.05;1.05;;;6.90;99.90;;;;;;5095103;28;20584;-68
2023/04/24 11:40:17;;;;;;;0.70;0.70;;;6.90;99.90;;;;;;5095393;28;20199;-68
2023/04/24 11:42:47;;;;;;;2.05;1.48;;;7.00;99.90;;;;;;5095103;28;20192;-68
2023/04/24 11:45:14;;;;;;;0.60;0.60;;;6.90;99.90;;;;;;5077026;28;20219;-69
2023/04/24 11:47:43;;;;;;;0.60;0.60;;;6.90;99.90;;;;;;5095043;28;21290;-69
2023/04/24 11:50:11;;;;;;;0.55;0.55;;;7.00;99.90;;;;;;5095105;28;20279;-68
2023/04/24 11:52:39;;;;;;;0.60;0.60;;;7.10;99.90;;;;;;5094890;28;20555;-68
2023/04/24 11:55:16;;;;;;;0.80;0.80;;;7.10;99.90;;;;;;5060556;28;20188;-68
2023/04/24 11:57:49;;;;;;;0.70;0.70;;;7.10;99.90;;;;;;5074504;28;20275;-68
2023/04/24 12:00:20;;;;;;;0.70;0.70;;;7.10;99.90;;;;;;5056647;28;20236;-68
2023/04/24 12:02:50;;;;;;;0.60;0.60;;;7.00;99.90;;;;;;5056652;28;20200;-69
2023/04/24 12:05:27;;;;;;;0.60;0.60;;;6.90;99.90;;;;;;5073712;28;20300;-69
2023/04/24 12:07:53;;;;;;;0.60;0.60;;;7.00;99.90;;;;;;5074556;28;20602;-69
2023/04/24 12:10:24;;;;;;;0.57;0.57;;;7.00;99.90;;;;;;5056562;28;20196;-69
2023/04/24 12:12:53;;;;;;;0.60;0.60;;;7.00;99.90;;;;;;5082636;28;20196;-68
2023/04/24 12:15:20;;;;;;;0.57;0.57;;;7.00;99.90;;;;;;5094693;28;20580;-69
2023/04/24 12:17:49;;;;;;;0.70;0.70;;;7.20;99.90;;;;;;5094701;28;20215;-69
2023/04/24 12:20:15;;;;;;;0.60;0.60;;;7.30;99.90;;;;;;5094658;28;20683;-69
2023/04/24 12:22:55;;;;;;;0.60;0.60;;;7.30;99.90;;;;;;5094236;28;20196;-69
2023/04/24 12:25:39;;;;;;;0.70;0.70;;;7.30;99.90;;;;;;5076026;28;20219;-69
2023/04/24 12:28:12;;;;;;;0.70;0.70;;;7.40;99.90;;;;;;5076203;28;20245;-68
2023/04/24 12:30:51;;;;;;;0.70;0.70;;;7.50;99.90;;;;;;5076112;28;20192;-69
2023/04/24 12:33:20;;;;;;;0.80;0.80;;;7.40;99.90;;;;;;5094139;28;20683;-70
2023/04/24 12:35:47;;;;;;;0.68;0.68;;;7.20;99.90;;;;;;5082143;28;20201;-72
2023/04/24 12:38:17;;;;;;;0.80;0.80;;;7.30;99.90;;;;;;5074104;28;20225;-73
2023/04/24 12:41:07;;;;;;;0.70;0.70;;;7.20;99.90;;;;;;5073785;28;20191;-72
2023/04/24 12:43:34;;;;;;;0.65;0.65;;;7.10;99.90;;;;;;5055511;28;20208;-73
2023/04/24 12:46:02;;;;;;;0.68;0.68;;;7.20;99.90;;;;;;5055946;28;20212;-73
2023/04/24 12:48:29;;;;;;;0.75;0.75;;;7.30;99.90;;;;;;5055958;28;20790;-73
2023/04/24 12:50:57;;;;;;;0.60;0.60;;;7.20;99.90;;;;;;5073848;28;20249;-73
2023/04/24 12:53:23;;;;;;;0.70;0.70;;;7.20;99.90;;;;;;5055375;28;20205;-73
2023/04/24 12:55:52;;;;;;;0.90;0.90;;;7.20;99.90;;;;;;5055614;28;20551;-73
2023/04/24 12:58:21;;;;;;;0.60;0.60;;;7.10;99.90;;;;;;5073594;28;20184;-73
2023/04/24 13:00:47;;;;;;;0.70;0.70;;;7.20;99.90;;;;;;5073610;28;20201;-73